Time;durP1;ratioP1;P1;durP2;ratioP2;P2;SDS_P1;SDS_P2;PMS_P1;PMS_P2;Temp;Humidity;BMP_temperature;BMP_pressure;BME280_temperature;BME280_humidity;BME280_pressure;Samples;Min_cycle;Max_cycle;Signal;HPM_P1;HPM_P2
2021/06/29 00:02:11;;;;;;;15.48;12.18;;;;;;;19.23;75.75;99675.72;5014359;28;20128;-63
2021/06/29 00:04:36;;;;;;;15.25;11.18;;;;;;;19.23;75.66;99665.22;4996871;28;20496;-63
2021/06/29 00:07:20;;;;;;;16.15;10.90;;;;;;;19.22;75.68;99648.56;5013252;28;20524;-63
2021/06/29 00:09:46;;;;;;;15.20;11.48;;;;;;;19.21;75.58;99644.22;5013350;28;20034;-63
2021/06/29 00:12:13;;;;;;;15.98;11.38;;;;;;;19.21;75.70;99630.25;5014649;28;20033;-65
2021/06/29 00:14:40;;;;;;;16.20;11.45;;;;;;;19.20;75.56;99612.75;4997037;28;20049;-65
2021/06/29 00:17:07;;;;;;;13.07;10.73;;;;;;;19.20;75.56;99612.75;5014091;28;20080;-65
2021/06/29 00:19:32;;;;;;;15.15;10.13;;;;;;;19.19;75.49;99601.38;5012465;28;20087;-65
2021/06/29 00:21:58;;;;;;;14.95;10.40;;;;;;;19.17;75.68;99597.91;5013075;28;20493;-65
2021/06/29 00:24:23;;;;;;;13.85;9.77;;;;;;;19.16;75.40;99599.69;5013133;28;20042;-65
2021/06/29 00:26:49;;;;;;;11.85;9.57;;;;;;;19.15;75.42;99589.25;5013126;28;20512;-65
2021/06/29 00:29:14;;;;;;;11.98;9.57;;;;;;;19.14;75.67;99583.13;4996562;28;20124;-65
2021/06/29 00:31:39;;;;;;;12.63;9.80;;;;;;;19.14;75.78;99585.75;4996493;28;20401;-65
2021/06/29 00:34:10;;;;;;;12.80;10.38;;;;;;;19.14;76.02;99592.78;5013963;28;20026;-65
2021/06/29 00:36:36;;;;;;;11.75;9.50;;;;;;;19.14;75.91;99587.53;5013443;28;20048;-65
2021/06/29 00:39:01;;;;;;;12.32;9.43;;;;;;;19.13;75.58;99594.50;5013297;28;20034;-64
2021/06/29 00:41:31;;;;;;;15.70;9.52;;;;;;;19.12;75.76;99600.66;5013944;28;20040;-65
2021/06/29 00:43:59;;;;;;;11.10;8.70;;;;;;;19.12;75.67;99598.03;5012272;28;20044;-65
2021/06/29 00:46:25;;;;;;;10.02;8.70;;;;;;;19.12;75.86;99581.44;4996361;28;20124;-64
2021/06/29 00:48:55;;;;;;;12.05;8.32;;;;;;;19.11;75.83;99569.22;5012546;28;20049;-65
2021/06/29 00:51:23;;;;;;;10.52;8.63;;;;;;;19.11;75.41;99577.09;4996564;28;20038;-65
2021/06/29 00:53:51;;;;;;;10.82;8.25;;;;;;;19.09;75.77;99579.75;5012949;28;20034;-63
2021/06/29 00:56:19;;;;;;;12.82;9.32;;;;;;;19.10;75.74;99572.72;5013306;28;20404;-64
2021/06/29 00:58:48;;;;;;;11.07;7.75;;;;;;;19.09;75.61;99574.47;5013273;28;20081;-64
2021/06/29 01:01:14;;;;;;;12.25;8.90;;;;;;;19.08;75.69;99570.13;4995602;28;20045;-64
2021/06/29 01:03:46;;;;;;;13.32;7.78;;;;;;;19.07;75.83;99560.56;5012897;28;20049;-64
2021/06/29 01:06:13;;;;;;;12.95;8.45;;;;;;;19.08;75.77;99564.88;4996285;28;20058;-64
2021/06/29 01:08:42;;;;;;;12.95;8.88;;;;;;;19.08;75.94;99564.03;5013663;28;20029;-64
2021/06/29 01:11:10;;;;;;;10.95;9.13;;;;;;;19.07;75.91;99555.31;5012763;28;20038;-64
2021/06/29 01:13:43;;;;;;;9.77;8.30;;;;;;;19.07;75.72;99551.81;4997715;28;20119;-64
2021/06/29 01:16:09;;;;;;;12.73;8.48;;;;;;;19.07;75.84;99554.44;5016825;28;20055;-64
2021/06/29 01:18:39;;;;;;;11.18;7.95;;;;;;;19.07;75.84;99551.81;5016076;28;20042;-64
2021/06/29 01:21:15;;;;;;;13.82;8.82;;;;;;;19.04;75.81;99562.38;5017083;28;20045;-63
2021/06/29 01:23:44;;;;;;;9.27;7.80;;;;;;;19.05;75.73;99564.97;5016306;28;20030;-63
2021/06/29 01:26:14;;;;;;;17.08;8.57;;;;;;;19.05;75.71;99575.50;4999842;28;20425;-64
2021/06/29 01:31:26;;;;;;;9.65;8.45;;;;;;;19.01;75.96;99561.56;5017522;28;20041;-64
2021/06/29 01:33:51;;;;;;;12.95;8.10;;;;;;;19.02;75.94;99562.44;5016103;28;20087;-64
2021/06/29 01:36:20;;;;;;;8.18;7.38;;;;;;;19.01;75.91;99568.59;5015631;28;20052;-64
2021/06/29 01:38:47;;;;;;;10.00;7.68;;;;;;;19.01;75.97;99573.84;4999644;28;20044;-64
2021/06/29 01:41:14;;;;;;;10.30;8.02;;;;;;;18.99;75.65;99576.53;4999468;28;20742;-65
2021/06/29 01:43:47;;;;;;;10.05;8.35;;;;;;;19.00;75.93;99585.25;5016982;28;20038;-64
2021/06/29 01:46:19;;;;;;;7.93;6.65;;;;;;;18.97;75.75;99580.94;5016949;28;20045;-65
2021/06/29 01:48:50;;;;;;;14.82;6.85;;;;;;;18.95;75.90;99582.75;5015736;28;20087;-65
2021/06/29 01:51:17;;;;;;;8.40;5.82;;;;;;;18.95;75.68;99584.50;5015821;28;20042;-64
2021/06/29 01:53:48;;;;;;;7.95;5.22;;;;;;;18.93;75.91;99581.88;5015923;28;20044;-64
2021/06/29 01:56:14;;;;;;;6.47;5.40;;;;;;;18.93;75.65;99573.13;5015657;28;20109;-64
2021/06/29 01:58:49;;;;;;;7.43;5.57;;;;;;;18.92;75.83;99574.06;5016921;28;20088;-64
2021/06/29 02:01:15;;;;;;;9.20;5.43;;;;;;;18.91;75.67;99574.97;4999223;28;20413;-64
2021/06/29 02:03:40;;;;;;;13.18;5.72;;;;;;;18.90;75.94;99575.84;5016734;28;20515;-64
2021/06/29 02:06:06;;;;;;;7.70;4.68;;;;;;;18.87;75.73;99575.03;5016438;28;20046;-65
2021/06/29 02:08:34;;;;;;;5.40;4.28;;;;;;;18.87;75.72;99571.53;5016425;28;20482;-64
2021/06/29 02:11:03;;;;;;;7.32;4.68;;;;;;;18.87;75.87;99563.66;5015848;28;20474;-64
2021/06/29 02:13:33;;;;;;;6.10;4.90;;;;;;;18.86;75.71;99562.81;5015444;28;20033;-64
2021/06/29 02:16:01;;;;;;;7.95;5.30;;;;;;;18.85;75.88;99557.56;5016558;28;20092;-64
2021/06/29 02:18:28;;;;;;;6.38;4.45;;;;;;;18.85;75.82;99562.81;5015339;28;20037;-64
2021/06/29 02:20:57;;;;;;;6.68;5.07;;;;;;;18.84;75.96;99556.72;5016531;28;20042;-64
2021/06/29 02:23:25;;;;;;;8.57;5.00;;;;;;;18.85;75.94;99552.31;4998828;28;20030;-64
2021/06/29 02:25:51;;;;;;;10.20;5.78;;;;;;;18.83;75.74;99548.91;5015063;28;20038;-64
2021/06/29 02:28:20;;;;;;;8.30;5.47;;;;;;;18.84;75.81;99545.38;5015162;28;20030;-64
2021/06/29 02:30:51;;;;;;;9.18;5.80;;;;;;;18.82;75.73;99545.41;4998881;28;20042;-64
2021/06/29 02:33:21;;;;;;;12.52;5.47;;;;;;;18.82;75.68;99536.69;5014558;28;20029;-64
2021/06/29 02:35:49;;;;;;;10.77;5.25;;;;;;;18.80;75.89;99547.19;5015015;28;20537;-64
2021/06/29 02:38:15;;;;;;;9.63;5.57;;;;;;;18.81;75.97;99537.56;5015313;28;20093;-64
2021/06/29 02:40:40;;;;;;;10.82;5.43;;;;;;;18.79;75.77;99534.97;5015899;28;20038;-64
2021/06/29 02:43:08;;;;;;;6.43;5.35;;;;;;;18.79;75.93;99542.84;5014759;28;20091;-63
2021/06/29 02:45:34;;;;;;;13.73;5.88;;;;;;;18.79;76.03;99555.13;5015789;28;20121;-64
2021/06/29 02:48:02;;;;;;;7.30;5.82;;;;;;;18.77;75.85;99555.16;5015634;28;20466;-63
2021/06/29 02:50:27;;;;;;;9.25;5.47;;;;;;;18.77;75.74;99563.03;5014929;28;20081;-64
2021/06/29 02:52:53;;;;;;;8.23;6.20;;;;;;;18.76;75.85;99571.81;5015917;28;20073;-63
2021/06/29 02:55:24;;;;;;;11.80;6.53;;;;;;;18.75;75.69;99577.97;5015449;28;20085;-63
2021/06/29 02:57:49;;;;;;;8.52;5.72;;;;;;;18.74;75.71;99575.38;5014257;28;20034;-64
2021/06/29 03:00:20;;;;;;;7.78;4.80;;;;;;;18.73;75.94;99577.16;5015192;28;20092;-64
2021/06/29 03:02:48;;;;;;;7.15;5.10;;;;;;;18.71;75.96;99574.53;5015603;28;20064;-63
2021/06/29 03:05:19;;;;;;;7.07;5.05;;;;;;;18.69;75.88;99578.97;5015263;28;20405;-63
2021/06/29 03:07:50;;;;;;;9.13;3.78;;;;;;;18.67;75.72;99575.53;5015294;28;20124;-63
2021/06/29 03:10:19;;;;;;;4.63;3.50;;;;;;;18.65;75.71;99574.72;5014601;28;20030;-63
2021/06/29 03:12:47;;;;;;;8.13;3.80;;;;;;;18.65;75.64;99581.72;5013815;28;20137;-63
2021/06/29 03:15:12;;;;;;;5.95;3.17;;;;;;;18.62;75.60;99581.78;5014849;28;20116;-63
2021/06/29 03:17:38;;;;;;;5.30;3.30;;;;;;;18.61;75.92;99580.09;5014163;28;20120;-64
2021/06/29 03:20:09;;;;;;;5.60;3.28;;;;;;;18.60;75.59;99576.59;5015205;28;20489;-63
2021/06/29 03:22:39;;;;;;;5.50;2.33;;;;;;;18.59;75.62;99576.63;5015383;28;20157;-63
2021/06/29 03:25:06;;;;;;;6.07;2.92;;;;;;;18.58;75.46;99583.63;4997733;28;20409;-63
2021/06/29 03:27:35;;;;;;;3.85;2.67;;;;;;;18.56;75.23;99586.28;4997598;28;20405;-63
2021/06/29 03:30:07;;;;;;;4.88;2.58;;;;;;;18.54;75.48;99580.22;5013692;28;20026;-63
2021/06/29 03:32:33;;;;;;;2.42;1.90;;;;;;;18.54;75.52;99579.34;5015282;28;20041;-63
2021/06/29 03:34:59;;;;;;;4.60;2.00;;;;;;;18.51;75.49;99577.66;5014188;28;20041;-63
2021/06/29 03:37:26;;;;;;;3.70;1.90;;;;;;;18.50;75.40;99570.69;5014374;28;20044;-63
2021/06/29 03:40:00;;;;;;;4.97;2.15;;;;;;;18.49;75.49;99576.84;5014891;28;20036;-63
2021/06/29 03:42:31;;;;;;;4.28;2.10;;;;;;;18.47;75.20;99570.75;5014134;28;20108;-63
2021/06/29 03:44:59;;;;;;;4.10;1.88;;;;;;;18.45;75.20;99579.56;5013233;28;20030;-63
2021/06/29 03:47:27;;;;;;;5.97;1.92;;;;;;;18.45;75.48;99579.56;5013917;28;20040;-63
2021/06/29 03:49:55;;;;;;;5.15;2.45;;;;;;;18.42;75.62;99576.13;5013569;28;20038;-63
2021/06/29 03:52:26;;;;;;;3.20;1.55;;;;;;;18.44;74.92;99580.47;5013072;28;20132;-63
2021/06/29 03:54:51;;;;;;;4.00;2.22;;;;;;;18.41;75.30;99589.28;4996858;28;20540;-64
2021/06/29 03:57:19;;;;;;;3.08;1.63;;;;;;;18.40;75.31;99584.94;5014866;28;20042;-63
2021/06/29 03:59:44;;;;;;;10.25;1.98;;;;;;;18.39;75.31;99581.44;5014820;28;20146;-63
2021/06/29 04:02:15;;;;;;;3.42;1.90;;;;;;;18.38;75.09;99581.47;5014370;28;20057;-63
2021/06/29 04:04:43;;;;;;;3.03;1.67;;;;;;;18.37;75.11;99583.22;4996934;28;20078;-63
2021/06/29 04:07:09;;;;;;;3.08;1.60;;;;;;;18.38;75.05;99582.34;5012830;28;20559;-63
2021/06/29 04:09:37;;;;;;;1.80;1.45;;;;;;;18.36;75.27;99578.03;5012755;28;20524;-63
2021/06/29 04:12:07;;;;;;;3.95;1.50;;;;;;;18.35;75.22;99581.56;5014068;28;20044;-64
2021/06/29 04:14:33;;;;;;;3.60;2.00;;;;;;;18.35;75.12;99573.69;5013994;28;20034;-63
2021/06/29 04:16:59;;;;;;;4.85;1.55;;;;;;;18.33;75.09;99591.22;5013042;28;20409;-63
2021/06/29 04:19:31;;;;;;;7.03;1.55;;;;;;;18.31;75.11;99590.38;5014248;28;20108;-64
2021/06/29 04:21:57;;;;;;;9.93;1.50;;;;;;;18.29;75.06;99586.97;5012606;28;20052;-64
2021/06/29 04:24:24;;;;;;;4.75;1.67;;;;;;;18.28;74.88;99587.84;5013022;28;20429;-63
2021/06/29 04:26:52;;;;;;;2.45;1.55;;;;;;;18.27;75.01;99584.34;5014415;28;20044;-63
2021/06/29 04:29:23;;;;;;;4.53;1.63;;;;;;;18.24;75.07;99587.91;5014011;28;20037;-64
2021/06/29 04:31:48;;;;;;;4.28;1.60;;;;;;;18.24;74.97;99585.28;5014165;28;20037;-65
2021/06/29 04:34:16;;;;;;;4.78;1.50;;;;;;;18.21;75.01;99580.13;5014086;28;20030;-63
2021/06/29 04:36:44;;;;;;;3.90;1.55;;;;;;;18.21;75.03;99590.59;5012589;28;20037;-64
2021/06/29 04:39:13;;;;;;;4.07;1.60;;;;;;;18.20;74.98;99577.53;4996353;28;20033;-64
2021/06/29 04:41:38;;;;;;;3.25;1.63;;;;;;;18.21;75.20;99589.75;5013900;28;20030;-63
2021/06/29 04:44:05;;;;;;;4.45;1.55;;;;;;;18.20;74.97;99596.75;4996573;28;20034;-64
2021/06/29 04:46:36;;;;;;;1.70;1.30;;;;;;;18.19;74.90;99604.66;5012942;28;20541;-64
2021/06/29 04:49:02;;;;;;;2.80;1.95;;;;;;;18.16;74.91;99607.34;5011722;28;20034;-64
2021/06/29 04:51:27;;;;;;;6.22;1.70;;;;;;;18.15;74.79;99605.63;5013523;28;20420;-64
2021/06/29 04:53:55;;;;;;;1.95;1.38;;;;;;;18.13;74.92;99613.53;5013803;28;20030;-64
2021/06/29 04:56:20;;;;;;;6.35;1.77;;;;;;;18.14;74.98;99611.75;5012643;28;20083;-64
2021/06/29 04:58:53;;;;;;;2.65;1.90;;;;;;;18.11;74.64;99610.91;5012469;28;20129;-64
2021/06/29 05:01:21;;;;;;;5.72;1.70;;;;;;;18.11;74.98;99605.69;5013677;28;20076;-64
2021/06/29 05:03:50;;;;;;;4.97;1.55;;;;;;;18.12;74.71;99601.31;5013552;28;20049;-64
2021/06/29 05:06:19;;;;;;;2.70;1.60;;;;;;;18.10;74.66;99603.09;5012518;28;20040;-64
2021/06/29 05:08:48;;;;;;;2.33;1.27;;;;;;;18.09;74.60;99596.13;5013840;28;20129;-64
2021/06/29 05:11:19;;;;;;;1.95;1.40;;;;;;;18.10;74.71;99600.47;5013504;28;20065;-64
2021/06/29 05:13:47;;;;;;;4.97;1.40;;;;;;;18.09;74.87;99604.84;5013569;28;20045;-64
2021/06/29 05:16:13;;;;;;;5.32;1.45;;;;;;;18.10;74.79;99605.72;5013307;28;20037;-64
2021/06/29 05:18:43;;;;;;;3.25;1.30;;;;;;;18.09;74.57;99604.84;5012432;28;20095;-64
2021/06/29 05:21:09;;;;;;;3.33;1.27;;;;;;;18.08;74.28;99603.13;5013385;28;20030;-64
2021/06/29 05:23:37;;;;;;;2.88;1.60;;;;;;;18.08;74.64;99597.03;5013567;28;20553;-64
2021/06/29 05:26:08;;;;;;;3.47;1.42;;;;;;;18.07;74.72;99597.91;5013435;28;20046;-64
2021/06/29 05:28:38;;;;;;;2.00;1.50;;;;;;;18.08;74.43;99604.88;5012346;28;20042;-64
2021/06/29 05:31:06;;;;;;;4.07;1.58;;;;;;;18.06;74.60;99602.28;5012038;28;20494;-64
2021/06/29 05:33:37;;;;;;;1.30;1.20;;;;;;;18.06;74.56;99601.44;5012245;28;20092;-64
2021/06/29 05:36:08;;;;;;;2.15;1.75;;;;;;;18.06;74.59;99601.44;5013341;28;20041;-64
2021/06/29 05:38:34;;;;;;;3.20;1.67;;;;;;;18.03;74.57;99614.59;4996331;28;20053;-64
2021/06/29 05:40:59;;;;;;;4.55;2.00;;;;;;;18.03;74.54;99614.59;5011516;28;20029;-64
2021/06/29 05:43:28;;;;;;;2.65;1.80;;;;;;;18.02;74.38;99616.38;5013327;28;20034;-64
2021/06/29 05:45:55;;;;;;;10.63;2.50;;;;;;;18.03;74.22;99606.75;5013554;28;20500;-64
2021/06/29 05:48:23;;;;;;;4.30;1.98;;;;;;;18.03;74.78;99606.75;5013538;28;20061;-64
2021/06/29 05:50:51;;;;;;;3.63;1.95;;;;;;;18.03;74.54;99612.88;5012866;28;20030;-64
2021/06/29 05:53:17;;;;;;;7.82;3.08;;;;;;;18.02;74.44;99621.63;5011820;28;20128;-64
2021/06/29 05:55:44;;;;;;;4.85;2.20;;;;;;;18.01;74.65;99624.25;5012831;28;20125;-64
2021/06/29 05:58:12;;;;;;;3.25;1.95;;;;;;;18.00;74.42;99620.78;5012664;28;20042;-64
2021/06/29 06:00:38;;;;;;;5.97;2.78;;;;;;;18.01;74.24;99621.63;5014941;28;20030;-64
2021/06/29 06:03:05;;;;;;;7.00;2.60;;;;;;;18.01;74.40;99611.16;5017027;28;20057;-64
2021/06/29 06:05:34;;;;;;;8.48;2.40;;;;;;;18.00;74.37;99614.66;5016776;28;20037;-64
2021/06/29 06:07:59;;;;;;;3.05;2.30;;;;;;;17.99;74.44;99613.81;5015154;28;20406;-64
2021/06/29 06:10:27;;;;;;;5.97;2.25;;;;;;;17.98;74.27;99609.47;5015263;28;20037;-64
2021/06/29 06:12:55;;;;;;;5.38;2.05;;;;;;;18.00;74.03;99612.03;5015360;28;20034;-64
2021/06/29 06:15:23;;;;;;;4.40;1.90;;;;;;;18.00;74.43;99610.31;5015484;28;20452;-64
2021/06/29 06:17:51;;;;;;;6.55;1.92;;;;;;;18.00;74.37;99610.31;5016187;28;20555;-64
2021/06/29 06:20:19;;;;;;;7.30;2.28;;;;;;;18.01;74.29;99609.41;5016312;28;20030;-64
2021/06/29 06:22:46;;;;;;;4.43;1.90;;;;;;;18.01;74.23;99613.78;5016274;28;20124;-64
2021/06/29 06:25:11;;;;;;;4.50;2.05;;;;;;;18.01;74.25;99613.78;5015079;28;20068;-64
2021/06/29 06:27:45;;;;;;;2.58;1.48;;;;;;;18.00;74.29;99612.91;5016529;28;20081;-64
2021/06/29 06:30:12;;;;;;;3.90;1.88;;;;;;;18.01;74.14;99611.16;5016936;28;20038;-64
2021/06/29 06:32:40;;;;;;;2.88;1.67;;;;;;;18.02;74.20;99607.63;5014985;28;20604;-64
2021/06/29 06:35:11;;;;;;;1.70;1.20;;;;;;;18.02;74.33;99603.28;5015034;28;20128;-65
2021/06/29 06:37:37;;;;;;;4.07;1.73;;;;;;;18.04;74.28;99608.47;5016227;28;20124;-64
2021/06/29 06:40:07;;;;;;;3.58;1.50;;;;;;;18.04;74.04;99604.09;4998171;28;20124;-64
2021/06/29 06:42:35;;;;;;;3.25;1.13;;;;;;;18.04;73.99;99591.00;5014994;28;20045;-64
2021/06/29 06:45:05;;;;;;;2.10;1.30;;;;;;;18.05;74.28;99591.84;5015803;28;20044;-64
2021/06/29 06:47:30;;;;;;;4.05;1.60;;;;;;;18.06;74.36;99597.03;5014513;28;20084;-64
2021/06/29 06:49:56;;;;;;;3.78;1.60;;;;;;;18.03;74.40;99594.50;5015640;28;20042;-67
2021/06/29 06:52:24;;;;;;;6.40;1.55;;;;;;;18.05;74.25;99584.84;5013649;28;20041;-66
2021/06/29 06:54:53;;;;;;;3.33;1.58;;;;;;;18.05;74.22;99592.72;5014051;28;20049;-67
2021/06/29 06:57:21;;;;;;;7.93;1.60;;;;;;;18.04;73.84;99585.75;5014489;28;20033;-67
2021/06/29 06:59:46;;;;;;;3.65;1.80;;;;;;;18.04;74.15;99588.38;5015715;28;20069;-67
2021/06/29 07:02:15;;;;;;;2.78;1.92;;;;;;;18.05;74.27;99589.22;5014125;28;20473;-67
2021/06/29 07:04:46;;;;;;;3.35;1.67;;;;;;;18.05;74.29;99591.84;5014374;28;20076;-67
2021/06/29 07:07:11;;;;;;;2.70;1.73;;;;;;;18.05;74.13;99589.22;5014373;28;20037;-67
2021/06/29 07:09:39;;;;;;;4.05;1.52;;;;;;;18.04;74.15;99584.88;5015000;28;20034;-67
2021/06/29 07:12:05;;;;;;;4.25;1.70;;;;;;;18.05;73.90;99578.72;5014806;28;20045;-67
2021/06/29 07:14:31;;;;;;;3.83;1.85;;;;;;;18.04;74.03;99566.53;5013918;28;20413;-67
2021/06/29 07:16:56;;;;;;;3.10;1.80;;;;;;;18.05;74.13;99568.25;5013966;28;20497;-67
2021/06/29 07:19:22;;;;;;;7.22;1.95;;;;;;;18.06;74.00;99580.47;5015146;28;20037;-67
2021/06/29 07:21:47;;;;;;;8.00;1.90;;;;;;;18.05;73.97;99577.00;5015189;28;20092;-67
2021/06/29 07:24:16;;;;;;;4.72;1.60;;;;;;;18.07;73.84;99579.56;5015239;28;20030;-67
2021/06/29 07:26:41;;;;;;;2.80;1.60;;;;;;;18.07;74.38;99585.66;5014275;28;20041;-68
2021/06/29 07:29:09;;;;;;;4.57;1.70;;;;;;;18.08;74.14;99589.16;5015178;28;20527;-67
2021/06/29 07:31:38;;;;;;;7.53;1.88;;;;;;;18.09;74.20;99581.25;5015438;28;20048;-68
2021/06/29 07:34:03;;;;;;;5.13;1.90;;;;;;;18.10;74.12;99580.34;5015137;28;20042;-67
2021/06/29 07:36:29;;;;;;;3.65;1.88;;;;;;;18.11;74.03;99583.84;5013808;28;20379;-67
2021/06/29 07:38:57;;;;;;;8.60;1.95;;;;;;;18.11;74.11;99579.47;5015032;28;20030;-68
2021/06/29 07:41:23;;;;;;;2.00;1.52;;;;;;;18.13;74.04;99584.69;5013353;28;20486;-67
2021/06/29 07:43:49;;;;;;;2.72;1.45;;;;;;;18.14;73.89;99577.66;5013549;28;20038;-68
2021/06/29 07:46:17;;;;;;;1.98;1.48;;;;;;;18.14;74.05;99575.88;5014996;28;20034;-67
2021/06/29 07:48:47;;;;;;;3.10;1.88;;;;;;;18.15;74.09;99571.53;5014784;28;20038;-68
2021/06/29 07:51:15;;;;;;;2.42;1.83;;;;;;;18.16;74.02;99583.75;5014074;28;20043;-67
2021/06/29 07:53:41;;;;;;;4.60;1.85;;;;;;;18.17;73.93;99575.81;5014678;28;20037;-67
2021/06/29 07:56:17;;;;;;;1.67;1.58;;;;;;;18.20;74.02;99582.78;5014779;28;20038;-67
2021/06/29 07:58:44;;;;;;;2.55;1.50;;;;;;;18.20;74.22;99581.00;5013582;28;20061;-67
2021/06/29 08:01:14;;;;;;;4.63;1.88;;;;;;;18.20;74.11;99578.38;5014352;28;20041;-67
2021/06/29 08:03:39;;;;;;;6.32;1.83;;;;;;;18.21;74.05;99574.03;5015045;28;20102;-66
2021/06/29 08:06:07;;;;;;;2.65;1.65;;;;;;;18.20;74.10;99578.38;5014334;28;20037;-67
2021/06/29 08:08:34;;;;;;;3.63;1.63;;;;;;;18.21;74.04;99580.13;5014787;28;20042;-67
2021/06/29 08:11:04;;;;;;;2.10;1.77;;;;;;;18.22;74.20;99581.84;5013312;28;20521;-67
2021/06/29 08:13:32;;;;;;;6.40;1.63;;;;;;;18.23;73.99;99580.06;5012834;28;20037;-67
2021/06/29 08:15:58;;;;;;;6.13;2.28;;;;;;;18.23;73.98;99578.31;5014650;28;20385;-67
2021/06/29 08:18:28;;;;;;;3.75;1.83;;;;;;;18.24;73.92;99581.78;5014226;28;20042;-67
2021/06/29 08:20:55;;;;;;;3.08;1.73;;;;;;;18.25;73.96;99575.66;5013109;28;20459;-67
2021/06/29 08:23:21;;;;;;;3.70;1.60;;;;;;;18.28;73.92;99578.22;5013366;28;20053;-68
2021/06/29 08:25:48;;;;;;;5.45;2.03;;;;;;;18.30;73.99;99575.53;5014077;28;20404;-67
2021/06/29 08:28:17;;;;;;;2.00;1.70;;;;;;;18.32;73.94;99573.75;5014126;28;20053;-67
2021/06/29 08:30:42;;;;;;;6.72;1.83;;;;;;;18.34;74.06;99577.19;5012859;28;20188;-66
2021/06/29 08:33:12;;;;;;;19.60;10.88;;;;;;;18.36;74.22;99570.16;5012023;28;20552;-65
2021/06/29 08:35:40;;;;;;;87.78;50.13;;;;;;;18.44;74.01;99567.34;4996331;28;20033;-68
2021/06/29 08:38:08;;;;;;;62.03;34.58;;;;;;;18.50;74.05;99561.97;4996539;28;20038;-67
2021/06/29 08:40:37;;;;;;;83.03;47.08;;;;;;;18.52;73.66;99563.66;5012137;28;20034;-66
2021/06/29 08:43:05;;;;;;;49.15;27.85;;;;;;;18.55;73.69;99555.72;5012714;28;20043;-67
2021/06/29 08:45:34;;;;;;;20.77;11.10;;;;;;;18.60;73.93;99560.84;5012196;28;20484;-67
2021/06/29 08:48:06;;;;;;;25.45;13.88;;;;;;;18.64;73.74;99562.50;5012615;28;20524;-68
2021/06/29 08:50:33;;;;;;;15.85;9.32;;;;;;;18.66;73.67;99554.56;5014019;28;20121;-67
2021/06/29 08:53:00;;;;;;;15.05;9.15;;;;;;;18.69;73.70;99554.50;4996314;28;20034;-67
2021/06/29 08:55:32;;;;;;;9.15;6.05;;;;;;;18.69;73.68;99547.47;5014055;28;20587;-68
2021/06/29 08:58:04;;;;;;;7.82;5.35;;;;;;;18.69;73.62;99542.22;5012332;28;20115;-68
2021/06/29 09:00:30;;;;;;;7.15;4.43;;;;;;;18.74;73.72;99551.75;5013398;28;20121;-67
2021/06/29 09:02:55;;;;;;;5.60;3.53;;;;;;;18.77;73.59;99542.03;5013479;28;20133;-67
2021/06/29 09:05:30;;;;;;;7.85;3.28;;;;;;;18.78;73.66;99538.50;5013887;28;20034;-67
2021/06/29 09:08:04;;;;;;;5.25;3.08;;;;;;;18.82;73.56;99534.06;5013411;28;20042;-67
2021/06/29 09:10:36;;;;;;;3.80;2.60;;;;;;;18.85;73.50;99540.06;5013933;28;20508;-67
2021/06/29 09:13:06;;;;;;;3.67;2.65;;;;;;;18.91;73.27;99543.47;5013376;28;20061;-67
2021/06/29 09:15:41;;;;;;;3.63;2.45;;;;;;;18.93;73.56;99553.00;5014019;28;20068;-67
2021/06/29 09:18:06;;;;;;;3.55;2.53;;;;;;;18.95;73.52;99556.50;5012529;28;20100;-66
2021/06/29 09:20:37;;;;;;;7.70;2.63;;;;;;;18.98;73.19;99558.16;4995827;28;20505;-66
2021/06/29 09:23:24;;;;;;;3.92;2.72;;;;;;;18.99;73.47;99555.50;4996215;28;20112;-67
2021/06/29 09:26:08;;;;;;;4.93;2.85;;;;;;;19.02;73.28;99559.81;4995962;28;20096;-67
2021/06/29 09:28:40;;;;;;;8.70;2.67;;;;;;;19.02;73.34;99563.28;4996327;28;20116;-65
2021/06/29 09:31:10;;;;;;;4.82;2.30;;;;;;;19.05;73.24;99562.38;4995685;28;20045;-67
2021/06/29 09:33:42;;;;;;;4.38;2.28;;;;;;;19.06;73.10;99558.84;4995593;28;20038;-67
2021/06/29 09:36:20;;;;;;;4.07;2.45;;;;;;;19.09;73.04;99556.09;5000160;28;20042;-67
2021/06/29 09:38:47;;;;;;;3.83;2.38;;;;;;;19.13;73.32;99559.53;5016229;28;20124;-67
2021/06/29 09:41:19;;;;;;;3.05;2.45;;;;;;;19.14;73.02;99562.09;5016214;28;20125;-67
2021/06/29 09:43:50;;;;;;;7.07;2.83;;;;;;;19.15;72.86;99557.72;4999479;28;20121;-67
2021/06/29 09:46:17;;;;;;;3.97;3.00;;;;;;;19.16;73.05;99560.28;5017582;28;20042;-66
2021/06/29 09:48:52;;;;;;;3.58;2.70;;;;;;;19.15;73.00;99563.81;4999448;28;20490;-66
2021/06/29 09:51:28;;;;;;;4.90;2.92;;;;;;;19.15;72.93;99558.56;4999671;28;20048;-67
2021/06/29 09:53:56;;;;;;;5.47;2.75;;;;;;;19.19;73.00;99555.88;4999430;28;20029;-66
2021/06/29 09:56:24;;;;;;;4.68;3.10;;;;;;;19.24;72.99;99565.34;4999347;28;20038;-66
2021/06/29 09:58:54;;;;;;;5.00;2.97;;;;;;;19.27;72.70;99564.38;5016918;28;20037;-66
2021/06/29 10:01:22;;;;;;;5.40;2.83;;;;;;;19.29;73.07;99565.22;4999683;28;20068;-66
2021/06/29 10:03:53;;;;;;;4.45;2.80;;;;;;;19.27;72.63;99562.63;4998785;28;20058;-64
2021/06/29 10:06:26;;;;;;;4.80;3.03;;;;;;;19.25;72.93;99558.31;4999155;28;20555;-64
2021/06/29 10:08:54;;;;;;;3.80;2.42;;;;;;;19.22;72.82;99551.38;4999149;28;20386;-64
2021/06/29 10:11:27;;;;;;;4.95;2.80;;;;;;;19.19;72.88;99554.09;5016598;28;20045;-64
2021/06/29 10:14:00;;;;;;;7.28;3.15;;;;;;;19.18;72.98;99557.63;5016016;28;20038;-63
2021/06/29 10:16:31;;;;;;;9.23;2.92;;;;;;;19.15;72.79;99558.56;4999437;28;20038;-62
2021/06/29 10:21:28;;;;;;;5.32;3.00;;;;;;;19.16;73.03;99551.53;5015901;28;20547;-62
2021/06/29 10:24:00;;;;;;;7.13;3.22;;;;;;;19.16;72.88;99546.28;5016431;28;20030;-62
2021/06/29 10:26:31;;;;;;;4.93;3.03;;;;;;;19.15;72.78;99545.44;4998664;28;20052;-64
2021/06/29 10:29:00;;;;;;;5.00;2.92;;;;;;;19.14;73.11;99541.09;5015158;28;20037;-64
2021/06/29 10:31:48;;;;;;;4.15;2.70;;;;;;;19.15;72.74;99537.56;5014896;28;20056;-64
2021/06/29 10:34:15;;;;;;;3.08;2.58;;;;;;;19.15;72.93;99537.56;5014790;28;20038;-64
2021/06/29 10:36:44;;;;;;;7.38;3.08;;;;;;;19.14;72.89;99525.34;4998631;28;20033;-64
2021/06/29 10:39:14;;;;;;;4.97;3.15;;;;;;;19.15;72.74;99521.81;5015802;28;20121;-64
2021/06/29 10:41:47;;;;;;;7.05;3.25;;;;;;;19.17;72.87;99516.50;5014886;28;20061;-64
2021/06/29 10:44:18;;;;;;;6.60;3.53;;;;;;;19.17;73.01;99514.75;4998553;28;20144;-64
2021/06/29 10:46:49;;;;;;;6.18;2.70;;;;;;;19.19;72.98;99514.69;4997403;28;20034;-64
2021/06/29 10:49:38;;;;;;;2.97;2.67;;;;;;;19.19;72.77;99519.94;5016200;28;20045;-64
2021/06/29 10:52:26;;;;;;;4.43;2.95;;;;;;;19.21;72.75;99522.56;5016106;28;20030;-64
2021/06/29 10:54:57;;;;;;;4.53;3.13;;;;;;;19.23;72.88;99523.38;5015192;28;20503;-64
2021/06/29 10:57:26;;;;;;;6.88;3.40;;;;;;;19.24;72.67;99525.06;5016117;28;20062;-64
2021/06/29 10:59:55;;;;;;;3.60;3.00;;;;;;;19.24;72.91;99528.56;5014678;28;20060;-64
2021/06/29 11:02:35;;;;;;;3.65;2.55;;;;;;;19.24;72.74;99525.94;5014346;28;20470;-64
2021/06/29 11:05:04;;;;;;;4.45;2.83;;;;;;;19.25;72.83;99524.16;5014138;28;20117;-64
2021/06/29 11:07:29;;;;;;;5.32;3.08;;;;;;;19.25;72.69;99518.91;4998032;28;20038;-64
2021/06/29 11:09:59;;;;;;;5.93;2.63;;;;;;;19.26;72.76;99512.75;5015613;28;20563;-64
2021/06/29 11:12:29;;;;;;;4.22;2.55;;;;;;;19.27;72.58;99522.34;5015432;28;20085;-64
2021/06/29 11:15:00;;;;;;;3.20;2.50;;;;;;;19.27;72.67;99523.22;4998570;28;20148;-64
2021/06/29 11:17:51;;;;;;;4.15;2.70;;;;;;;19.27;72.76;99519.72;5013966;28;20121;-64
2021/06/29 11:20:22;;;;;;;3.00;2.40;;;;;;;19.27;72.68;99512.72;4998479;28;20049;-64
2021/06/29 11:22:52;;;;;;;4.50;2.80;;;;;;;19.28;72.31;99516.19;5013931;28;20499;-64
2021/06/29 11:25:35;;;;;;;4.90;2.60;;;;;;;19.28;72.56;99511.81;4998213;28;20055;-64
2021/06/29 11:28:04;;;;;;;5.57;2.65;;;;;;;19.28;72.50;99505.69;5013624;28;20038;-63
2021/06/29 11:30:55;;;;;;;2.80;2.50;;;;;;;19.29;72.55;99517.94;4997598;28;20041;-63
2021/06/29 11:34:10;;;;;;;4.15;2.40;;;;;;;19.29;72.48;99512.66;5015113;28;20485;-63
2021/06/29 11:36:51;;;;;;;3.50;2.67;;;;;;;19.29;72.72;99507.41;5002515;28;20132;-62
2021/06/29 11:39:17;;;;;;;3.15;2.55;;;;;;;19.31;72.45;99495.94;5014221;28;20042;-63
2021/06/29 11:42:01;;;;;;;3.75;2.58;;;;;;;19.31;72.48;99506.47;5013666;28;20038;-63
2021/06/29 11:44:27;;;;;;;2.80;2.20;;;;;;;19.32;72.60;99499.44;4997712;28;20508;-63
2021/06/29 11:47:06;;;;;;;10.57;2.35;;;;;;;19.32;72.49;99502.09;5014968;28;20073;-64